createdAt,value
2019-04-04T00:00:14.360Z,99564.14
2019-04-04T00:03:21.760Z,99531.63
2019-04-04T00:06:38.493Z,99494.98
2019-04-04T00:09:45.736Z,99538.50
2019-04-04T00:12:51.384Z,99500.43
2019-04-04T00:16:08.078Z,99506.63
2019-04-04T00:19:24.914Z,99497.77
2019-04-04T00:22:41.894Z,99493.46
2019-04-04T00:25:47.703Z,99505.92
2019-04-04T00:29:04.155Z,99482.64
2019-04-04T00:32:21.619Z,99486.43
2019-04-04T00:35:31.068Z,99507.95
2019-04-04T00:38:38.626Z,99503.86
2019-04-04T00:41:55.199Z,99509.39
2019-04-04T00:45:02.602Z,99509.23
2019-04-04T00:48:19.339Z,99496.42
2019-04-04T00:51:38.745Z,99470.45
2019-04-04T00:55:00.369Z,99443.05
2019-04-04T00:58:07.617Z,99435.40
2019-04-04T01:01:26.892Z,99478.73
2019-04-04T01:04:42.744Z,99484.05
2019-04-04T01:07:50.048Z,99485.50
2019-04-04T01:11:06.887Z,99485.58
2019-04-04T01:14:15.047Z,99486.95
2019-04-04T01:17:22.787Z,99461.91
2019-04-04T01:20:30.123Z,99473.98
2019-04-04T01:23:47.005Z,99483.20
2019-04-04T01:27:04.126Z,99431.39
2019-04-04T01:30:13.007Z,99369.31
2019-04-04T01:33:20.464Z,99410.47
2019-04-04T01:36:28.013Z,99413.22
2019-04-04T01:39:34.201Z,99454.67
2019-04-04T01:42:51.201Z,99459.33
2019-04-04T01:46:07.592Z,99476.27
2019-04-04T01:49:14.908Z,99495.63
2019-04-04T01:52:31.741Z,99505.58
2019-04-04T01:55:48.391Z,99501.41
2019-04-04T01:58:55.795Z,99494.91
2019-04-04T02:02:12.421Z,99484.67
2019-04-04T02:05:19.686Z,99470.69
2019-04-04T02:08:26.922Z,99478.52
2019-04-04T02:11:43.632Z,99467.58
2019-04-04T02:15:00.575Z,99454.62
2019-04-04T02:18:17.233Z,99428.56
2019-04-04T02:21:33.989Z,99420.42
2019-04-04T02:24:41.576Z,99425.56
2019-04-04T02:27:58.280Z,99411.21
2019-04-04T02:31:21.046Z,99416.16
2019-04-04T02:34:28.669Z,99423.18
2019-04-04T02:37:36.183Z,99412.77
2019-04-04T02:40:52.888Z,99400.97
2019-04-04T02:44:09.689Z,99388.01
2019-04-04T02:47:18.096Z,99380.23
2019-04-04T02:50:25.491Z,99395.61
2019-04-04T02:53:32.757Z,99406.78
2019-04-04T02:56:40.034Z,99406.81
2019-04-04T02:59:47.320Z,99396.42
2019-04-04T03:02:54.461Z,99391.94
2019-04-04T03:06:11.378Z,99374.95
2019-04-04T03:09:28.083Z,99372.59
2019-04-04T03:12:35.336Z,99363.07
2019-04-04T03:15:52.066Z,99365.89
2019-04-04T03:19:11.052Z,99377.31
2019-04-04T03:22:28.299Z,99386.17
2019-04-04T03:25:35.635Z,99388.30
2019-04-04T03:28:43.009Z,99388.73
2019-04-04T03:31:50.224Z,99398.50
2019-04-04T03:34:57.544Z,99393.03
2019-04-04T03:38:04.863Z,99391.00
2019-04-04T03:41:21.661Z,99383.98
2019-04-04T03:44:38.340Z,99394.94
2019-04-04T03:47:45.567Z,99408.81
2019-04-04T03:50:56.581Z,99427.58
2019-04-04T03:54:22.233Z,99416.23
2019-04-04T03:57:26.987Z,99424.63
2019-04-04T04:00:34.310Z,99433.98
2019-04-04T04:03:41.595Z,99425.55
2019-04-04T04:06:49.129Z,99431.78
2019-04-04T04:09:59.329Z,99436.80
2019-04-04T04:13:05.477Z,99449.76
2019-04-04T04:16:12.843Z,99448.58
2019-04-04T04:19:31.304Z,99454.97
2019-04-04T04:22:50.439Z,99450.97
2019-04-04T04:26:09.376Z,99449.95
2019-04-04T04:29:32.627Z,99441.27
2019-04-04T04:32:49.169Z,99441.83
2019-04-04T04:36:09.539Z,99446.22
2019-04-04T04:39:24.515Z,99432.05
2019-04-04T04:42:31.836Z,99425.11
2019-04-04T04:45:37.379Z,99431.84
2019-04-04T04:48:54.163Z,99438.81
2019-04-04T04:52:12.260Z,99451.14
2019-04-04T04:55:29.317Z,99451.97
2019-04-04T04:58:36.635Z,99464.02
2019-04-04T05:01:53.352Z,99459.35
2019-04-04T05:05:10.229Z,99451.89
2019-04-04T05:08:17.452Z,99449.14
2019-04-04T05:11:34.090Z,99425.81
2019-04-04T05:14:40.376Z,99425.02
2019-04-04T05:17:47.930Z,99435.33
2019-04-04T05:20:57.436Z,99458.98
2019-04-04T05:24:04.262Z,99481.03
2019-04-04T05:27:11.667Z,99477.18
2019-04-04T05:30:20.407Z,99471.24
2019-04-04T05:33:29.115Z,99470.16
2019-04-04T05:36:46.135Z,99475.90
2019-04-04T05:39:55.323Z,99480.56
2019-04-04T05:43:14.761Z,99489.61
2019-04-04T05:46:30.137Z,99486.86
2019-04-04T05:49:38.223Z,99474.97
2019-04-04T05:52:46.146Z,99468.58
2019-04-04T05:56:06.137Z,99474.24
2019-04-04T05:59:23.667Z,99481.77
2019-04-04T06:02:41.093Z,99486.55
2019-04-04T06:06:01.052Z,99491.69
2019-04-04T06:09:16.545Z,99490.37
2019-04-04T06:12:25.018Z,99500.41
2019-04-04T06:15:42.089Z,99485.06
2019-04-04T06:18:58.822Z,99486.86
2019-04-04T06:22:06.221Z,99489.09
2019-04-04T06:25:22.908Z,99487.03
2019-04-04T06:28:39.632Z,99460.36
2019-04-04T06:31:46.923Z,99469.51
2019-04-04T06:35:03.749Z,99467.58
2019-04-04T06:38:22.978Z,99461.75
2019-04-04T06:41:39.005Z,99458.92
2019-04-04T06:44:46.264Z,99462.67
2019-04-04T06:48:02.970Z,99473.98
2019-04-04T06:51:12.025Z,99482.77
2019-04-04T06:54:28.653Z,99480.84
2019-04-04T06:57:36.595Z,99483.33
2019-04-04T07:00:48.583Z,99473.99
2019-04-04T07:04:03.000Z,99462.92
2019-04-04T07:07:19.712Z,99461.19
2019-04-04T07:10:27.030Z,99460.20
2019-04-04T07:13:42.256Z,99463.02
2019-04-04T07:16:41.667Z,99469.42
2019-04-04T07:19:47.302Z,99450.95
2019-04-04T07:23:03.806Z,99443.34
2019-04-04T07:26:20.591Z,99452.86
2019-04-04T07:29:37.411Z,99453.34
2019-04-04T07:32:54.105Z,99463.12
2019-04-04T07:36:01.395Z,99469.59
2019-04-04T07:39:18.107Z,99472.91
2019-04-04T07:42:25.442Z,99486.52
2019-04-04T07:45:32.671Z,99488.42
2019-04-04T07:48:51.631Z,99485.68
2019-04-04T07:52:07.771Z,99497.10
2019-04-04T07:55:24.504Z,99505.81
2019-04-04T07:58:41.297Z,99506.06
2019-04-04T08:01:51.325Z,99513.02
2019-04-04T08:05:07.342Z,99497.77
2019-04-04T08:08:23.781Z,99490.80
2019-04-04T08:11:30.918Z,99472.95
2019-04-04T08:14:39.237Z,99458.22
2019-04-04T08:17:46.540Z,99444.48
2019-04-04T08:20:53.834Z,99458.37
2019-04-04T08:24:01.096Z,99466.66
2019-04-04T08:27:08.386Z,99470.41
2019-04-04T08:30:15.816Z,99467.48
2019-04-04T08:33:23.059Z,99464.86
2019-04-04T08:36:39.842Z,99446.69
2019-04-04T08:39:47.119Z,99463.54
2019-04-04T08:43:03.909Z,99456.55
2019-04-04T08:46:20.621Z,99465.22
2019-04-04T08:49:28.006Z,99476.03
2019-04-04T08:52:45.107Z,99483.09
2019-04-04T08:56:01.783Z,99469.59
2019-04-04T08:59:18.559Z,99465.66
2019-04-04T09:02:25.774Z,99469.50
2019-04-04T09:05:42.655Z,99467.91
2019-04-04T09:08:49.915Z,99480.73
2019-04-04T09:11:57.099Z,99487.58
2019-04-04T09:15:15.415Z,99491.58
2019-04-04T09:18:22.555Z,99508.00
2019-04-04T09:21:29.836Z,99513.84
2019-04-04T09:24:46.588Z,99511.27
2019-04-04T09:27:53.869Z,99509.31
2019-04-04T09:31:10.560Z,99511.61
2019-04-04T09:34:17.794Z,99519.22
2019-04-04T09:37:25.023Z,99521.67
2019-04-04T09:40:32.149Z,99531.83
2019-04-04T09:43:39.633Z,99531.17
2019-04-04T09:47:05.277Z,99538.24
2019-04-04T09:50:14.917Z,99535.66
2019-04-04T09:53:31.460Z,99519.89
2019-04-04T09:56:38.683Z,99514.22
2019-04-04T09:59:44.952Z,99518.55
2019-04-04T10:02:52.168Z,99514.45
2019-04-04T10:05:59.392Z,99513.61
2019-04-04T10:09:15.720Z,99502.29
2019-04-04T10:12:25.830Z,99516.94
2019-04-04T10:15:42.691Z,99510.12
2019-04-04T10:18:49.479Z,99505.73
2019-04-04T10:21:56.956Z,99503.95
2019-04-04T10:25:04.509Z,99511.09
2019-04-04T10:28:23.344Z,99505.50
2019-04-04T10:31:39.344Z,99511.42
2019-04-04T10:34:46.623Z,99506.95
2019-04-04T10:37:53.864Z,99505.39
2019-04-04T10:41:10.601Z,99512.63
2019-04-04T10:44:27.401Z,99508.03
2019-04-04T10:47:44.276Z,99509.75
2019-04-04T10:50:51.527Z,99507.95
2019-04-04T10:54:08.313Z,99501.23
2019-04-04T10:57:15.524Z,99503.19
2019-04-04T11:00:22.843Z,99500.88
2019-04-04T11:03:39.433Z,99499.34
2019-04-04T11:06:56.298Z,99496.13
2019-04-04T11:10:13.110Z,99495.92
2019-04-04T11:13:33.846Z,99497.20
2019-04-04T11:16:48.313Z,99497.45
2019-04-04T11:20:05.390Z,99499.34
2019-04-04T11:23:22.125Z,99515.42
2019-04-04T11:26:29.446Z,99514.13
2019-04-04T11:29:46.204Z,99512.45
2019-04-04T11:33:02.938Z,99523.13
2019-04-04T11:36:10.194Z,99517.02
2019-04-04T11:39:17.328Z,99513.10
2019-04-04T11:42:24.563Z,99500.73
2019-04-04T11:45:31.900Z,99491.00
2019-04-04T11:48:48.601Z,99493.30
2019-04-04T11:51:55.737Z,99505.11
2019-04-04T11:55:03.351Z,99516.59
2019-04-04T11:58:19.980Z,99524.15
2019-04-04T12:01:38.561Z,99530.53
2019-04-04T12:04:57.762Z,99529.71
2019-04-04T12:08:14.125Z,99538.38
2019-04-04T12:11:22.823Z,99531.49
2019-04-04T12:14:30.293Z,99541.34
2019-04-04T12:17:46.901Z,99545.12
2019-04-04T12:20:54.292Z,99537.70
2019-04-04T12:24:10.997Z,99546.94
2019-04-04T12:27:27.827Z,99559.16
2019-04-04T12:30:44.541Z,99561.13
2019-04-04T12:33:52.135Z,99563.80
2019-04-04T12:37:08.584Z,99565.80
2019-04-04T12:40:20.778Z,99570.00
2019-04-04T12:43:34.769Z,99574.00
2019-04-04T12:46:42.571Z,99562.77
2019-04-04T12:49:50.035Z,99553.31
2019-04-04T12:52:57.629Z,99550.00
2019-04-04T12:56:14.156Z,99543.61
2019-04-04T12:59:21.426Z,99545.81
2019-04-04T13:02:28.561Z,99554.80
2019-04-04T13:05:35.806Z,99544.40
2019-04-04T13:08:43.112Z,99538.86
2019-04-04T13:11:59.858Z,99531.83
2019-04-04T13:15:16.837Z,99526.94
2019-04-04T13:18:33.498Z,99508.86
2019-04-04T13:21:50.489Z,99513.44
2019-04-04T13:25:07.822Z,99510.49
2019-04-04T13:28:15.033Z,99511.92
2019-04-04T13:31:22.341Z,99511.71
2019-04-04T13:34:29.487Z,99523.35
2019-04-04T13:37:36.832Z,99528.91
2019-04-04T13:40:45.725Z,99527.83
2019-04-04T13:43:53.720Z,99524.75
2019-04-04T13:47:02.751Z,99534.59
2019-04-04T13:50:12.271Z,99535.78
2019-04-04T13:53:28.129Z,99531.58
2019-04-04T13:56:44.826Z,99528.20
2019-04-04T13:59:51.985Z,99524.09
2019-04-04T14:02:59.317Z,99515.12
2019-04-04T14:06:16.065Z,99509.69
2019-04-04T14:09:23.404Z,99526.92
2019-04-04T14:12:40.051Z,99519.63
2019-04-04T14:15:47.284Z,99516.61
2019-04-04T14:19:04.281Z,99514.26
2019-04-04T14:22:20.999Z,99515.74
2019-04-04T14:25:37.733Z,99517.59
2019-04-04T14:28:45.046Z,99518.33
2019-04-04T14:32:01.835Z,99510.00
2019-04-04T14:35:24.581Z,99506.09
2019-04-04T14:38:31.741Z,99509.59
2019-04-04T14:41:38.953Z,99507.52
2019-04-04T14:44:46.317Z,99503.33
2019-04-04T14:48:03.306Z,99506.69
2019-04-04T14:51:19.959Z,99501.77
2019-04-04T14:54:39.374Z,99502.55
2019-04-04T14:57:58.705Z,99499.12
2019-04-04T15:01:05.618Z,99506.70
2019-04-04T15:04:12.776Z,99502.36
2019-04-04T15:07:20.148Z,99499.66
2019-04-04T15:10:27.393Z,99497.66
2019-04-04T15:13:34.639Z,99493.19
2019-04-04T15:16:42.030Z,99503.48
2019-04-04T15:19:58.692Z,99496.04
2019-04-04T15:23:06.018Z,99492.67
2019-04-04T15:26:22.711Z,99491.34
2019-04-04T15:29:29.877Z,99486.48
2019-04-04T15:32:37.063Z,99481.97
2019-04-04T15:35:44.261Z,99482.93
2019-04-04T15:38:51.413Z,99488.75
2019-04-04T15:41:59.030Z,99496.92
2019-04-04T15:45:15.614Z,99493.85
2019-04-04T15:48:22.950Z,99499.91
2019-04-04T15:51:39.714Z,99490.05
2019-04-04T15:54:56.431Z,99487.23
2019-04-04T15:58:03.676Z,99486.36
2019-04-04T16:01:20.516Z,99482.77
2019-04-04T16:04:37.294Z,99492.16
2019-04-04T16:07:54.212Z,99487.46
2019-04-04T16:11:10.921Z,99498.70
2019-04-04T16:14:27.652Z,99505.95
2019-04-04T16:17:34.860Z,99505.84
2019-04-04T16:20:42.209Z,99506.39
2019-04-04T16:23:58.948Z,99494.66
2019-04-04T16:27:15.787Z,99493.79
2019-04-04T16:30:23.100Z,99491.74
2019-04-04T16:33:39.693Z,99493.70
2019-04-04T16:36:46.988Z,99498.53
2019-04-04T16:40:09.308Z,99497.98
2019-04-04T16:43:22.600Z,99495.49
2019-04-04T16:46:29.910Z,99501.80
2019-04-04T16:49:46.651Z,99508.09
2019-04-04T16:53:03.363Z,99520.66
2019-04-04T16:56:10.631Z,99530.42
2019-04-04T16:59:17.781Z,99541.94
2019-04-04T17:02:34.836Z,99550.66
2019-04-04T17:05:51.465Z,99554.33
2019-04-04T17:09:08.655Z,99560.98
2019-04-04T17:12:25.302Z,99557.23
2019-04-04T17:15:41.874Z,99557.45
2019-04-04T17:18:49.358Z,99560.55
2019-04-04T17:22:06.356Z,99561.02
2019-04-04T17:25:23.527Z,99561.48
2019-04-04T17:28:40.025Z,99561.14
2019-04-04T17:31:57.195Z,99563.26
2019-04-04T17:35:06.363Z,99574.46
2019-04-04T17:38:13.908Z,99587.09
2019-04-04T17:41:21.837Z,99592.59
2019-04-04T17:44:39.242Z,99585.12
2019-04-04T17:47:56.144Z,99594.02
2019-04-04T17:51:04.178Z,99612.52
2019-04-04T17:54:12.058Z,99621.75
2019-04-04T17:57:29.508Z,99630.53
2019-04-04T18:00:37.070Z,99639.47
2019-04-04T18:03:44.471Z,99650.08
2019-04-04T18:06:52.193Z,99656.56
2019-04-04T18:09:59.681Z,99657.91
2019-04-04T18:13:07.385Z,99658.84
2019-04-04T18:16:14.983Z,99664.23
2019-04-04T18:19:32.010Z,99669.27
2019-04-04T18:22:48.696Z,99665.41
2019-04-04T18:26:05.973Z,99670.84
2019-04-04T18:29:13.781Z,99686.09
2019-04-04T18:32:21.483Z,99700.77
2019-04-04T18:35:38.359Z,99700.16
2019-04-04T18:38:55.210Z,99702.12
2019-04-04T18:42:11.904Z,99706.19
2019-04-04T18:45:28.799Z,99724.59
2019-04-04T18:48:45.310Z,99725.85
2019-04-04T18:52:01.913Z,99734.94
2019-04-04T18:55:20.286Z,99729.91
2019-04-04T18:58:37.335Z,99734.00
2019-04-04T19:01:54.104Z,99737.02
2019-04-04T19:05:11.264Z,99735.75
2019-04-04T19:08:27.806Z,99730.84
2019-04-04T19:11:44.566Z,99737.20
2019-04-04T19:15:01.324Z,99733.82
2019-04-04T19:18:18.041Z,99729.98
2019-04-04T19:21:35.130Z,99738.36
2019-04-04T19:24:51.754Z,99732.98
2019-04-04T19:28:08.423Z,99726.92
2019-04-04T19:31:15.666Z,99721.99
2019-04-04T19:34:32.462Z,99712.81
2019-04-04T19:37:39.772Z,99709.22
2019-04-04T19:41:02.436Z,99715.31
2019-04-04T19:44:19.245Z,99709.93
2019-04-04T19:47:26.523Z,99713.95
2019-04-04T19:50:43.181Z,99700.37
2019-04-04T19:53:59.912Z,99700.66
2019-04-04T19:57:17.125Z,99704.86
2019-04-04T20:00:33.532Z,99714.05
2019-04-04T20:03:40.839Z,99719.84
2019-04-04T20:06:57.644Z,99715.17
2019-04-04T20:10:14.455Z,99704.09
2019-04-04T20:13:31.543Z,99714.34
2019-04-04T20:16:38.880Z,99711.42
2019-04-04T20:19:46.000Z,99714.08
2019-04-04T20:22:53.230Z,99718.12
2019-04-04T20:26:09.472Z,99710.89
2019-04-04T20:29:16.727Z,99709.06
2019-04-04T20:32:24.032Z,99719.11
2019-04-04T20:35:40.795Z,99717.13
2019-04-04T20:38:47.991Z,99714.91
2019-04-04T20:42:04.822Z,99722.15
2019-04-04T20:45:21.584Z,99721.51
2019-04-04T20:48:38.305Z,99715.56
2019-04-04T20:51:55.247Z,99717.39
2019-04-04T20:55:11.960Z,99722.70
2019-04-04T20:58:19.094Z,99717.58
2019-04-04T21:01:26.367Z,99713.34
2019-04-04T21:04:33.504Z,99713.81
2019-04-04T21:07:40.639Z,99716.83
2019-04-04T21:10:47.938Z,99715.11
2019-04-04T21:13:56.250Z,99709.05
2019-04-04T21:17:17.382Z,99709.41
2019-04-04T21:20:34.151Z,99707.94
2019-04-04T21:23:51.080Z,99713.91
2019-04-04T21:27:07.721Z,99708.30
2019-04-04T21:30:14.913Z,99714.14
2019-04-04T21:33:31.624Z,99719.28
2019-04-04T21:36:38.807Z,99722.28
2019-04-04T21:39:46.100Z,99723.11
2019-04-04T21:42:53.405Z,99728.96
2019-04-04T21:46:10.139Z,99723.20
2019-04-04T21:49:26.934Z,99730.25
2019-04-04T21:52:49.655Z,99731.31
2019-04-04T21:56:06.499Z,99726.22
2019-04-04T21:59:13.840Z,99725.55
2019-04-04T22:02:30.585Z,99733.36
2019-04-04T22:05:47.319Z,99722.72
2019-04-04T22:08:54.551Z,99727.72
2019-04-04T22:12:01.689Z,99729.45
2019-04-04T22:15:10.074Z,99735.48
2019-04-04T22:18:17.383Z,99737.72
2019-04-04T22:21:24.683Z,99729.09
2019-04-04T22:24:31.912Z,99725.86
2019-04-04T22:27:39.134Z,99727.91
2019-04-04T22:30:46.475Z,99748.16
2019-04-04T22:33:53.600Z,99753.86
2019-04-04T22:36:59.127Z,99757.07
2019-04-04T22:40:06.536Z,99752.72
2019-04-04T22:43:14.713Z,99749.72
2019-04-04T22:46:21.843Z,99758.94
2019-04-04T22:49:29.036Z,99762.47
2019-04-04T22:52:36.307Z,99765.19
2019-04-04T22:55:43.873Z,99775.73
2019-04-04T22:58:51.194Z,99781.98
2019-04-04T23:01:58.537Z,99788.35
2019-04-04T23:05:06.747Z,99795.83
2019-04-04T23:08:15.184Z,99803.04
2019-04-04T23:11:22.538Z,99816.40
2019-04-04T23:14:29.693Z,99827.43
2019-04-04T23:17:36.906Z,99813.16
2019-04-04T23:20:44.140Z,99812.08
2019-04-04T23:23:51.662Z,99809.50
2019-04-04T23:26:58.788Z,99820.55
2019-04-04T23:30:07.724Z,99813.33
2019-04-04T23:33:15.052Z,99808.95
2019-04-04T23:36:34.373Z,99816.03
2019-04-04T23:39:40.955Z,99820.47
2019-04-04T23:42:48.261Z,99820.84
2019-04-04T23:46:05.073Z,99813.45
2019-04-04T23:49:21.808Z,99816.66
2019-04-04T23:52:28.958Z,99816.09
2019-04-04T23:55:36.376Z,99802.91
2019-04-04T23:58:52.982Z,99801.48
